Time;durP1;ratioP1;P1;durP2;ratioP2;P2;SDS_P1;SDS_P2;PMS_P1;PMS_P2;Temp;Humidity;BMP_temperature;BMP_pressure;BME280_temperature;BME280_humidity;BME280_pressure;Samples;Min_cycle;Max_cycle;Signal;HPM_P1;HPM_P2
2023/03/29 00:03:23;;;;;;;5.40;2.40;;;;;;;4.60;100.00;101635.13;10342416;28;20048;-74
2023/03/29 00:08:24;;;;;;;5.78;2.95;;;;;;;4.60;100.00;101625.03;10342520;28;20050;-75
2023/03/29 00:13:25;;;;;;;7.90;3.05;;;;;;;4.58;100.00;101616.22;10342098;28;20044;-75
2023/03/29 00:18:26;;;;;;;5.78;3.15;;;;;;;4.36;100.00;101588.13;10341792;28;20038;-73
2023/03/29 00:23:26;;;;;;;7.13;3.05;;;;;;;4.39;100.00;101589.63;10357586;28;20069;-75
2023/03/29 00:28:27;;;;;;;6.88;3.22;;;;;;;4.37;100.00;101594.44;10340959;28;20029;-75
2023/03/29 00:33:27;;;;;;;5.70;4.13;;;;;;;4.32;100.00;101585.97;10342774;28;20038;-75
2023/03/29 00:38:28;;;;;;;6.32;3.63;;;;;;;4.28;100.00;101579.22;10341012;28;20061;-75
2023/03/29 00:43:28;;;;;;;5.47;3.55;;;;;;;4.21;100.00;101568.28;10340728;28;20034;-76
2023/03/29 00:48:30;;;;;;;12.70;4.53;;;;;;;4.23;100.00;101575.22;10331060;28;20144;-75
2023/03/29 00:53:32;;;;;;;5.22;3.58;;;;;;;4.15;100.00;101567.16;10397520;28;20046;-74
2023/03/29 00:58:40;;;;;;;11.45;4.32;;;;;;;4.19;100.00;101578.53;10414566;28;20033;-75
2023/03/29 01:03:44;;;;;;;8.02;4.38;;;;;;;4.18;100.00;101561.34;10382414;28;20429;-74
2023/03/29 01:08:56;;;;;;;9.27;4.60;;;;;;;4.23;100.00;101552.56;10371811;28;20456;-75
2023/03/29 01:14:32;;;;;;;5.60;4.35;;;;;;;4.25;100.00;101542.31;10339222;28;20045;-75
2023/03/29 01:19:44;;;;;;;7.20;4.20;;;;;;;4.22;100.00;101538.09;10352066;28;20160;-75
2023/03/29 01:24:49;;;;;;;9.18;4.68;;;;;;;4.31;100.00;101543.41;10341112;28;20101;-74
2023/03/29 01:29:56;;;;;;;6.57;4.03;;;;;;;4.34;100.00;101526.66;10355878;28;20034;-75
2023/03/29 01:35:09;;;;;;;6.65;4.15;;;;;;;4.30;100.00;101506.28;10356209;28;20048;-75
2023/03/29 01:40:09;;;;;;;6.43;4.40;;;;;;;4.35;100.00;101517.44;10371495;28;20072;-74
2023/03/29 01:45:33;;;;;;;6.18;3.83;;;;;;;4.29;100.00;101496.44;10355015;28;20071;-75
2023/03/29 01:50:47;;;;;;;7.57;3.63;;;;;;;4.40;100.00;101495.88;10339422;28;20042;-74
2023/03/29 01:56:13;;;;;;;6.68;3.88;;;;;;;4.39;100.00;101491.47;10354662;28;20037;-75
2023/03/29 02:01:16;;;;;;;6.75;4.13;;;;;;;4.29;100.00;101477.34;10339411;28;20556;-75
2023/03/29 02:06:19;;;;;;;5.55;3.42;;;;;;;4.33;100.00;101492.28;10338600;28;20101;-75
2023/03/29 02:11:20;;;;;;;6.72;4.13;;;;;;;4.30;100.00;101471.72;10331169;28;20054;-74
2023/03/29 02:16:21;;;;;;;8.57;4.70;;;;;;;4.42;100.00;101480.16;10339657;28;20060;-74
2023/03/29 02:21:29;;;;;;;7.03;3.63;;;;;;;4.40;100.00;101460.44;10338019;28;20034;-74
2023/03/29 02:26:30;;;;;;;7.22;4.32;;;;;;;4.39;100.00;101443.25;10338075;28;20129;-75
2023/03/29 02:31:40;;;;;;;8.18;4.18;;;;;;;4.45;100.00;101453.34;10338053;28;20034;-74
2023/03/29 02:36:54;;;;;;;8.35;5.30;;;;;;;4.37;100.00;101428.97;10354506;28;20102;-75
2023/03/29 02:41:54;;;;;;;7.82;4.68;;;;;;;4.43;100.00;101441.81;10354494;28;20034;-74
2023/03/29 02:47:13;;;;;;;9.63;5.72;;;;;;;4.22;100.00;101399.09;10337690;28;20042;-76
2023/03/29 02:52:16;;;;;;;7.78;4.72;;;;;;;4.37;100.00;101409.88;10353328;28;20074;-74
2023/03/29 02:57:20;;;;;;;8.40;5.10;;;;;;;4.38;100.00;101411.59;10337942;28;20105;-75
2023/03/29 03:02:24;;;;;;;10.63;5.75;;;;;;;4.37;100.00;101387.25;10337198;28;20037;-75
2023/03/29 03:07:25;;;;;;;9.65;6.28;;;;;;;4.41;100.00;101388.53;10380298;28;20037;-75
2023/03/29 03:12:26;;;;;;;14.20;6.40;;;;;;;4.47;100.00;101401.34;10359805;28;20038;-76
2023/03/29 03:17:26;;;;;;;12.80;7.40;;;;;;;4.45;100.00;101401.53;10375857;28;20049;-76
2023/03/29 03:22:26;;;;;;;13.10;7.55;;;;;;;4.41;100.00;101393.97;10360125;28;20034;-75
2023/03/29 03:27:27;;;;;;;13.88;7.88;;;;;;;4.53;100.00;101400.56;10360140;28;20030;-76
2023/03/29 03:32:27;;;;;;;15.93;8.20;;;;;;;4.45;100.00;101382.47;10360045;28;20034;-75
2023/03/29 03:37:28;;;;;;;14.07;8.38;;;;;;;4.55;100.00;101387.56;10344698;28;20335;-74
2023/03/29 03:42:28;;;;;;;14.43;9.77;;;;;;;4.37;100.00;101355.34;10344385;28;20045;-75
2023/03/29 03:47:30;;;;;;;16.13;9.77;;;;;;;4.55;100.00;101384.00;10358467;28;20042;-76
2023/03/29 03:52:30;;;;;;;16.52;9.73;;;;;;;4.55;100.00;101371.19;10343345;28;20104;-75
2023/03/29 03:57:31;;;;;;;18.85;11.20;;;;;;;4.60;100.00;101371.41;10326621;28;20046;-75
2023/03/29 04:02:32;;;;;;;18.58;10.57;;;;;;;4.53;100.00;101356.91;10359307;28;20042;-75
2023/03/29 04:07:33;;;;;;;18.90;11.15;;;;;;;4.50;100.00;101351.84;10327314;28;20069;-76
2023/03/29 04:12:34;;;;;;;19.77;11.43;;;;;;;4.54;100.00;101355.84;10376777;28;20069;-75
2023/03/29 04:17:35;;;;;;;20.83;11.43;;;;;;;4.61;100.00;101353.16;10373277;28;20041;-76
2023/03/29 04:22:35;;;;;;;21.08;11.35;;;;;;;4.11;100.00;101266.13;10357282;28;20034;-75
2023/03/29 04:27:36;;;;;;;23.40;12.88;;;;;;;4.52;100.00;101322.50;10375646;28;20042;-75
2023/03/29 04:32:36;;;;;;;26.10;11.93;;;;;;;4.63;100.00;101349.19;10357565;28;20048;-75
2023/03/29 04:37:39;;;;;;;20.75;11.48;;;;;;;4.58;100.00;101338.03;10358445;28;20069;-75
2023/03/29 04:42:44;;;;;;;20.98;12.38;;;;;;;4.62;100.00;101328.41;10365053;28;20442;-75
2023/03/29 04:47:45;;;;;;;18.65;12.15;;;;;;;4.68;100.00;101343.13;10357149;28;20049;-75
2023/03/29 04:52:45;;;;;;;22.13;11.77;;;;;;;4.67;100.00;101329.69;10355858;28;20040;-77
2023/03/29 04:57:46;;;;;;;25.17;13.45;;;;;;;4.66;100.00;101331.59;10356415;28;20038;-76
2023/03/29 05:02:47;;;;;;;21.73;12.25;;;;;;;4.64;100.00;101320.88;10341037;28;20034;-75
2023/03/29 05:07:47;;;;;;;21.20;13.63;;;;;;;4.72;100.00;101327.22;10341119;28;20034;-75
2023/03/29 05:12:52;;;;;;;19.48;11.82;;;;;;;4.74;100.00;101325.13;10358346;28;20069;-76
2023/03/29 05:17:53;;;;;;;22.98;12.52;;;;;;;4.70;100.00;101321.94;10395821;28;20033;-76
2023/03/29 05:22:53;;;;;;;20.05;11.68;;;;;;;4.79;100.00;101314.41;10380394;28;20045;-75
2023/03/29 05:27:54;;;;;;;18.23;11.90;;;;;;;4.81;100.00;101328.69;10396111;28;20060;-76
2023/03/29 05:32:54;;;;;;;20.08;12.32;;;;;;;4.82;100.00;101316.75;10389886;28;20067;-76
2023/03/29 05:37:55;;;;;;;17.55;10.80;;;;;;;4.85;100.00;101310.88;10374777;28;20072;-76
2023/03/29 05:42:56;;;;;;;19.05;11.80;;;;;;;4.84;100.00;101311.94;10338698;28;20038;-76
2023/03/29 05:47:57;;;;;;;17.13;12.25;;;;;;;4.89;100.00;101323.06;10354759;28;20034;-77
2023/03/29 05:52:57;;;;;;;24.70;12.80;;;;;;;4.97;100.00;101322.03;10354925;28;20238;-77
2023/03/29 05:57:57;;;;;;;20.30;12.93;;;;;;;4.65;100.00;101270.75;10354937;28;20038;-77
2023/03/29 06:02:58;;;;;;;19.50;12.05;;;;;;;4.98;100.00;101327.28;10339881;28;20045;-76
2023/03/29 06:07:59;;;;;;;20.05;11.63;;;;;;;5.04;100.00;101329.19;10337557;28;20068;-76
2023/03/29 06:13:00;;;;;;;24.20;13.82;;;;;;;4.99;100.00;101334.41;10337879;28;20045;-76
2023/03/29 06:18:01;;;;;;;24.50;12.73;;;;;;;5.08;100.00;101331.50;10321363;28;20046;-76
2023/03/29 06:23:01;;;;;;;16.83;12.15;;;;;;;5.11;100.00;101331.94;10375782;28;20405;-76
2023/03/29 06:28:02;;;;;;;27.20;14.25;;;;;;;5.08;100.00;101331.50;10342829;28;20578;-71
2023/03/29 06:33:05;;;;;;;27.27;14.23;;;;;;;5.11;100.00;101339.28;10374148;28;20045;-76
2023/03/29 06:38:06;;;;;;;28.73;15.65;;;;;;;5.12;100.00;101343.69;10342089;28;20084;-77
2023/03/29 06:43:07;;;;;;;26.42;15.88;;;;;;;5.11;100.00;101325.63;10360752;28;20038;-76
2023/03/29 06:48:08;;;;;;;30.55;16.20;;;;;;;5.25;100.00;101354.63;10344094;28;20044;-76
2023/03/29 06:53:09;;;;;;;28.00;16.00;;;;;;;5.11;100.00;101331.09;10362018;28;20038;-76
2023/03/29 06:58:09;;;;;;;25.52;16.10;;;;;;;5.35;100.00;101349.59;10361655;28;20038;-76
2023/03/29 07:03:15;;;;;;;27.58;16.63;;;;;;;5.35;100.00;101348.75;10378567;28;20046;-75
2023/03/29 07:08:15;;;;;;;27.85;16.88;;;;;;;5.50;100.00;101351.28;10346396;28;20053;-76
2023/03/29 07:13:16;;;;;;;41.08;21.73;;;;;;;5.58;100.00;101348.34;10344915;28;20452;-76
2023/03/29 07:18:17;;;;;;;25.98;16.20;;;;;;;5.61;100.00;101337.84;10345013;28;20048;-76
2023/03/29 07:23:17;;;;;;;52.60;19.52;;;;;;;5.71;100.00;101351.09;10361422;28;20034;-75
2023/03/29 07:28:18;;;;;;;43.92;18.60;;;;;;;5.73;100.00;101357.19;10378581;28;20050;-75
2023/03/29 07:33:19;;;;;;;30.05;16.77;;;;;;;5.85;100.00;101360.97;10345200;28;20034;-75
2023/03/29 07:38:20;;;;;;;29.85;17.17;;;;;;;5.98;100.00;101353.84;10343970;28;20049;-75
2023/03/29 07:43:20;;;;;;;32.30;16.73;;;;;;;6.12;100.00;101344.56;10342655;28;20034;-76
2023/03/29 07:48:21;;;;;;;38.80;17.92;;;;;;;6.25;100.00;101350.00;10377451;28;20034;-75
2023/03/29 07:53:21;;;;;;;26.30;17.27;;;;;;;6.44;100.00;101355.63;10342241;28;20065;-76
2023/03/29 07:58:22;;;;;;;26.50;15.77;;;;;;;6.39;100.00;101350.81;10376495;28;20045;-76
2023/03/29 08:03:23;;;;;;;23.70;14.05;;;;;;;6.42;100.00;101365.94;10377894;28;20490;-75
2023/03/29 08:08:23;;;;;;;23.45;13.80;;;;;;;6.66;100.00;101358.94;10342857;28;20065;-76
2023/03/29 08:13:23;;;;;;;18.25;12.25;;;;;;;6.71;100.00;101333.66;10358502;28;20053;-76
2023/03/29 08:18:24;;;;;;;27.33;12.35;;;;;;;6.95;100.00;101346.59;10341930;28;20386;-76
2023/03/29 08:23:24;;;;;;;22.38;13.07;;;;;;;6.98;100.00;101331.59;10342147;28;20450;-76
2023/03/29 08:28:25;;;;;;;17.83;11.77;;;;;;;7.31;100.00;101341.53;10358674;28;20112;-76
2023/03/29 08:33:25;;;;;;;17.05;10.63;;;;;;;7.16;100.00;101339.09;10358685;28;20040;-75
2023/03/29 08:38:26;;;;;;;16.90;9.55;;;;;;;7.27;100.00;101346.59;10341739;28;20060;-71
2023/03/29 08:43:52;;;;;;;16.70;10.32;;;;;;;7.10;100.00;101339.97;10356912;28;20042;-75
2023/03/29 08:48:55;;;;;;;13.17;9.63;;;;;;;6.93;100.00;101250.16;10339310;28;20038;-75
2023/03/29 08:54:17;;;;;;;13.90;8.88;;;;;;;7.55;100.00;101307.84;10356841;28;20037;-76
2023/03/29 08:59:21;;;;;;;13.85;9.82;;;;;;;7.91;100.00;101295.25;10358161;28;20445;-75
2023/03/29 09:04:26;;;;;;;11.63;7.88;;;;;;;8.04;100.00;101303.38;10356541;28;20062;-76
2023/03/29 09:09:32;;;;;;;15.88;8.20;;;;;;;8.26;100.00;101311.13;10339714;28;20056;-76
2023/03/29 09:14:51;;;;;;;;;;;;;;;8.58;100.00;101298.13;10347802;28;20033;-76
2023/03/29 09:20:08;;;;;;;14.35;9.07;;;;;;;8.72;100.00;101303.44;10389460;28;19921;-75
2023/03/29 09:25:14;;;;;;;11.18;7.63;;;;;;;8.87;100.00;101301.97;10324306;28;20049;-76
2023/03/29 09:30:25;;;;;;;10.98;7.60;;;;;;;8.88;100.00;101280.81;10355944;28;20045;-76
2023/03/29 09:35:44;;;;;;;14.95;7.05;;;;;;;9.21;100.00;101258.34;10351612;28;20053;-76
2023/03/29 09:40:48;;;;;;;14.18;7.28;;;;;;;9.01;100.00;101241.34;10359041;28;20045;-75
2023/03/29 09:45:50;;;;;;;11.85;7.05;;;;;;;9.21;100.00;101263.84;10339999;28;20401;-76
2023/03/29 09:50:51;;;;;;;11.98;7.90;;;;;;;9.49;100.00;101243.94;10353079;28;20052;-75
2023/03/29 09:55:54;;;;;;;13.25;7.05;;;;;;;9.83;100.00;101233.16;10355451;28;20053;-77
2023/03/29 10:00:58;;;;;;;15.65;7.55;;;;;;;10.15;100.00;101231.91;10321527;28;20045;-76
2023/03/29 10:06:00;;;;;;;22.40;8.77;;;;;;;10.22;100.00;101244.47;10339135;28;20037;-76
2023/03/29 10:11:03;;;;;;;13.70;8.10;;;;;;;10.55;100.00;101244.91;10336774;28;20037;-76
2023/03/29 10:16:07;;;;;;;13.57;8.20;;;;;;;10.20;100.00;101249.38;10313508;28;20445;-76
2023/03/29 10:21:11;;;;;;;14.85;8.05;;;;;;;10.29;100.00;101256.22;10361929;28;20429;-76
2023/03/29 10:26:28;;;;;;;15.13;8.60;;;;;;;9.87;100.00;101264.59;10346785;28;20049;-78
2023/03/29 10:31:32;;;;;;;12.48;8.40;;;;;;;10.04;100.00;101266.63;10346625;28;20038;-77
2023/03/29 10:36:32;;;;;;;21.55;7.75;;;;;;;10.18;100.00;101268.03;10364033;28;20038;-78
2023/03/29 10:41:33;;;;;;;11.88;8.10;;;;;;;10.32;100.00;101218.28;10342616;28;20038;-77
2023/03/29 10:46:41;;;;;;;17.42;7.03;;;;;;;10.85;100.00;101250.13;10345613;28;20045;-78
2023/03/29 10:51:45;;;;;;;12.98;8.05;;;;;;;10.59;100.00;101238.66;10329168;28;20045;-77
2023/03/29 10:56:51;;;;;;;13.63;7.45;;;;;;;10.72;100.00;101245.75;10345632;28;20106;-76
2023/03/29 11:02:13;;;;;;;14.57;7.65;;;;;;;10.63;100.00;101250.84;10378159;28;20038;-76
2023/03/29 11:07:48;;;;;;;15.15;8.15;;;;;;;10.51;100.00;101255.56;10380451;28;20038;-75
2023/03/29 11:13:09;;;;;;;14.52;8.25;;;;;;;10.54;100.00;101238.53;10361430;28;20034;-76
2023/03/29 11:18:16;;;;;;;15.70;8.65;;;;;;;10.80;100.00;101247.28;10377466;28;20053;-76
2023/03/29 11:23:26;;;;;;;12.57;8.32;;;;;;;10.81;100.00;101232.44;10379039;28;20038;-76
2023/03/29 11:28:42;;;;;;;17.20;9.38;;;;;;;11.09;100.00;101229.63;10361065;28;20048;-76
2023/03/29 11:33:49;;;;;;;15.93;9.27;;;;;;;11.73;100.00;101217.41;10346678;28;20050;-77
2023/03/29 11:38:50;;;;;;;14.98;8.77;;;;;;;12.34;100.00;101202.78;10359725;28;20494;-78
2023/03/29 11:44:12;;;;;;;12.45;8.15;;;;;;;12.15;100.00;101214.13;10376168;28;20038;-78
2023/03/29 11:49:17;;;;;;;16.67;9.32;;;;;;;12.03;100.00;101210.66;10379762;28;20041;-81
2023/03/29 11:54:29;;;;;;;14.80;9.15;;;;;;;12.49;100.00;101208.50;10416519;28;20041;-78
2023/03/29 11:59:35;;;;;;;11.88;8.07;;;;;;;12.57;100.00;101209.94;10367899;28;20097;-78
2023/03/29 12:04:39;;;;;;;13.87;9.20;;;;;;;13.18;100.00;101209.72;10367935;28;20036;-78
2023/03/29 12:09:43;;;;;;;12.10;8.07;;;;;;;12.98;100.00;101210.34;10352763;28;20056;-80
2023/03/29 12:14:46;;;;;;;11.68;7.28;;;;;;;13.03;100.00;101202.94;10327200;28;20045;-79
2023/03/29 12:20:06;;;;;;;12.38;8.40;;;;;;;13.31;100.00;101198.22;10372454;28;20081;-79
2023/03/29 12:25:07;;;;;;;12.68;8.15;;;;;;;13.62;100.00;101176.31;10392397;28;20041;-80
2023/03/29 12:30:26;;;;;;;11.80;7.85;;;;;;;13.56;100.00;101188.44;10344518;28;20061;-79
2023/03/29 12:36:04;;;;;;;10.60;7.63;;;;;;;13.69;100.00;101183.28;10382496;28;20041;-79
2023/03/29 12:41:18;;;;;;;10.05;6.97;;;;;;;14.03;100.00;101171.81;10382369;28;20057;-79
2023/03/29 12:46:20;;;;;;;11.18;6.43;;;;;;;14.26;100.00;101159.47;10365302;28;20037;-81
2023/03/29 12:51:22;;;;;;;9.35;6.10;;;;;;;14.66;100.00;101163.47;10399176;28;20050;-80
2023/03/29 12:56:22;;;;;;;11.63;6.05;;;;;;;14.50;100.00;101154.25;10366257;28;20034;-82
2023/03/29 13:01:30;;;;;;;8.70;5.70;;;;;;;14.37;100.00;101153.97;10364960;28;20045;-83
2023/03/29 13:06:34;;;;;;;8.77;5.55;;;;;;;14.16;100.00;101142.81;10381703;28;20068;-82
2023/03/29 13:11:38;;;;;;;7.50;6.22;;;;;;;14.06;100.00;101142.78;10380779;28;20041;-83
2023/03/29 13:16:39;;;;;;;10.48;6.38;;;;;;;13.98;100.00;101157.16;10363885;28;20603;-84
2023/03/29 13:21:49;;;;;;;9.25;5.05;;;;;;;14.10;100.00;101160.50;10379913;28;20045;-85
2023/03/29 13:27:14;;;;;;;10.10;5.43;;;;;;;14.13;100.00;101151.66;10379143;28;20041;-84
2023/03/29 13:32:27;;;;;;;5.95;4.53;;;;;;;14.11;100.00;101140.00;10378030;28;20131;-81
2023/03/29 13:37:42;;;;;;;9.02;5.38;;;;;;;14.28;100.00;101129.56;10375852;28;20037;-84
2023/03/29 13:42:53;;;;;;;7.85;5.88;;;;;;;13.90;100.00;101134.41;10362644;28;20397;-86
2023/03/29 13:48:24;;;;;;;8.18;5.68;;;;;;;13.64;100.00;101138.13;10355739;28;20057;-85
2023/03/29 13:53:31;;;;;;;10.40;5.47;;;;;;;13.73;100.00;101125.47;10370318;28;20050;-85
2023/03/29 13:58:51;;;;;;;8.23;5.00;;;;;;;13.72;100.00;101119.13;10365575;28;20064;-84
2023/03/29 14:03:52;;;;;;;7.20;5.70;;;;;;;14.00;100.00;101114.25;10369051;28;20038;-84
2023/03/29 14:08:52;;;;;;;8.95;5.55;;;;;;;14.03;100.00;101087.94;10347530;28;20104;-84
2023/03/29 14:13:53;;;;;;;9.65;4.90;;;;;;;14.17;100.00;101094.63;10322352;28;20102;-85
2023/03/29 14:18:57;;;;;;;9.30;4.93;;;;;;;14.19;100.00;101084.09;10330090;28;20041;-84
2023/03/29 14:24:00;;;;;;;6.97;4.90;;;;;;;14.24;100.00;101084.13;10359509;28;20125;-85
2023/03/29 14:29:03;;;;;;;9.73;5.25;;;;;;;14.16;100.00;101087.44;10365711;28;20141;-85
2023/03/29 14:34:05;;;;;;;10.35;5.82;;;;;;;13.97;100.00;101089.03;10322147;28;20124;-86
2023/03/29 14:39:18;;;;;;;9.60;6.13;;;;;;;14.06;100.00;101093.78;10383808;28;20068;-86
2023/03/29 14:44:22;;;;;;;12.38;6.40;;;;;;;14.31;100.00;101079.16;10355047;28;20033;-85
2023/03/29 14:49:23;;;;;;;12.80;6.10;;;;;;;14.59;100.00;101079.75;10353504;28;20038;-84
2023/03/29 14:54:28;;;;;;;15.88;6.47;;;;;;;13.87;100.00;101015.94;10322291;28;20101;-85
2023/03/29 14:59:36;;;;;;;11.77;6.07;;;;;;;14.55;100.00;101084.16;10354079;28;20052;-84
2023/03/29 15:04:37;;;;;;;11.20;6.60;;;;;;;14.51;100.00;101074.72;10357351;28;20048;-83
2023/03/29 15:09:38;;;;;;;10.52;6.35;;;;;;;13.99;100.00;101070.22;10386296;28;20041;-84
2023/03/29 15:14:39;;;;;;;12.63;6.43;;;;;;;13.84;100.00;101074.59;10394012;28;20042;-84
2023/03/29 15:19:39;;;;;;;8.38;6.22;;;;;;;13.64;100.00;101055.16;10344652;28;20353;-84
2023/03/29 15:24:46;;;;;;;9.82;6.90;;;;;;;13.66;100.00;101061.25;10361711;28;20049;-83
2023/03/29 15:29:47;;;;;;;8.52;6.10;;;;;;;13.67;100.00;101047.16;10361034;28;20555;-85
2023/03/29 15:35:00;;;;;;;12.82;7.00;;;;;;;13.79;100.00;101041.38;10376530;28;20034;-84
2023/03/29 15:40:06;;;;;;;14.75;7.35;;;;;;;13.56;100.00;101044.59;10344272;28;20092;-83
2023/03/29 15:45:15;;;;;;;13.07;6.95;;;;;;;13.51;100.00;101040.72;10396848;28;20037;-84
2023/03/29 15:50:16;;;;;;;13.10;7.53;;;;;;;13.55;100.00;101038.25;10400950;28;20069;-83
2023/03/29 15:55:17;;;;;;;12.10;7.75;;;;;;;13.37;100.00;101009.13;10399750;28;20038;-84
2023/03/29 16:00:17;;;;;;;12.35;7.68;;;;;;;13.24;100.00;101031.72;10367031;28;20099;-84
2023/03/29 16:05:18;;;;;;;11.80;8.73;;;;;;;12.96;100.00;101022.72;10399550;28;20064;-82
2023/03/29 16:10:18;;;;;;;12.18;8.20;;;;;;;12.91;100.00;101019.91;10353661;28;20080;-83
2023/03/29 16:15:19;;;;;;;15.18;8.52;;;;;;;12.77;100.00;101004.88;10327374;28;20034;-83
2023/03/29 16:20:19;;;;;;;15.15;8.57;;;;;;;12.58;100.00;101004.47;10344413;28;20116;-84
2023/03/29 16:25:23;;;;;;;12.57;8.10;;;;;;;12.51;100.00;101013.81;10357585;28;20038;-84
2023/03/29 16:30:23;;;;;;;13.00;8.52;;;;;;;12.42;100.00;101036.66;10341338;28;20048;-82
2023/03/29 16:35:29;;;;;;;14.50;8.68;;;;;;;12.14;100.00;101016.53;10358186;28;20033;-83
2023/03/29 16:40:30;;;;;;;13.55;9.00;;;;;;;12.09;100.00;101006.28;10358038;28;20061;-84
2023/03/29 16:45:30;;;;;;;13.40;8.10;;;;;;;12.13;100.00;101014.84;10340509;28;20054;-84
2023/03/29 16:50:31;;;;;;;10.18;7.10;;;;;;;11.99;100.00;100999.81;10357184;28;20049;-84
2023/03/29 16:55:31;;;;;;;11.80;7.60;;;;;;;11.65;100.00;100939.31;10357358;28;20052;-81
2023/03/29 17:00:32;;;;;;;14.45;8.13;;;;;;;11.84;100.00;100993.00;10374911;28;20041;-82
2023/03/29 17:05:38;;;;;;;14.68;7.13;;;;;;;11.71;100.00;100987.91;10342446;28;20033;-82
2023/03/29 17:10:39;;;;;;;11.70;7.43;;;;;;;11.69;100.00;100973.56;10359330;28;20509;-82
2023/03/29 17:15:40;;;;;;;11.00;7.93;;;;;;;11.49;100.00;100955.69;10359226;28;20050;-80
2023/03/29 17:20:40;;;;;;;11.38;8.40;;;;;;;11.48;100.00;100965.03;10356987;28;20425;-80
2023/03/29 17:25:41;;;;;;;14.10;9.40;;;;;;;11.41;100.00;100949.78;10340831;28;20041;-81
2023/03/29 17:30:45;;;;;;;13.43;8.80;;;;;;;11.28;100.00;100940.81;10340919;28;20409;-84
2023/03/29 17:35:45;;;;;;;18.05;10.98;;;;;;;11.16;100.00;100953.06;10356341;28;20044;-82
2023/03/29 17:40:52;;;;;;;14.90;10.27;;;;;;;11.02;100.00;100953.47;10372936;28;20034;-83
2023/03/29 17:45:53;;;;;;;15.40;11.45;;;;;;;10.96;100.00;100959.19;10357108;28;20048;-81
2023/03/29 17:50:55;;;;;;;14.52;11.10;;;;;;;10.90;100.00;100959.09;10354573;28;20042;-83
2023/03/29 17:55:55;;;;;;;15.35;10.77;;;;;;;10.83;100.00;100965.84;10355067;28;20363;-78
2023/03/29 18:00:56;;;;;;;17.38;12.55;;;;;;;10.70;100.00;100962.38;10338252;28;20117;-78
2023/03/29 18:05:56;;;;;;;16.85;12.57;;;;;;;10.68;100.00;100967.31;10358955;28;20041;-78
2023/03/29 18:11:10;;;;;;;18.45;12.63;;;;;;;10.64;100.00;100973.56;10370270;28;20034;-77
2023/03/29 18:16:11;;;;;;;19.20;13.85;;;;;;;10.43;100.00;100944.91;10350324;28;20063;-77
2023/03/29 18:21:12;;;;;;;19.67;13.15;;;;;;;10.52;100.00;100942.56;10393639;28;20056;-77
2023/03/29 18:26:14;;;;;;;18.65;13.85;;;;;;;10.46;100.00;100944.41;10361075;28;20125;-78
2023/03/29 18:31:14;;;;;;;19.15;14.43;;;;;;;10.39;100.00;100938.25;10365230;28;20060;-77
2023/03/29 18:36:15;;;;;;;20.48;15.10;;;;;;;10.43;100.00;100939.41;10365544;28;20052;-74
2023/03/29 18:41:15;;;;;;;25.38;17.45;;;;;;;10.38;100.00;100951.16;10417682;28;20041;-72
2023/03/29 18:46:16;;;;;;;24.83;17.55;;;;;;;10.28;100.00;100928.97;10383950;28;20061;-73
2023/03/29 18:51:16;;;;;;;26.38;18.30;;;;;;;10.17;100.00;100930.72;10383742;28;20048;-73
2023/03/29 18:56:17;;;;;;;27.88;19.10;;;;;;;10.27;100.00;100958.41;10401311;28;20060;-73
2023/03/29 19:01:17;;;;;;;29.20;20.98;;;;;;;10.18;100.00;100937.88;10386098;28;20061;-74
2023/03/29 19:06:18;;;;;;;33.03;21.40;;;;;;;10.20;100.00;100924.72;10401840;28;20104;-73
2023/03/29 19:11:18;;;;;;;29.98;21.23;;;;;;;10.21;100.00;100925.53;10359613;28;20133;-73
2023/03/29 19:16:19;;;;;;;29.95;21.92;;;;;;;10.20;100.00;100930.22;10368279;28;20105;-74
2023/03/29 19:21:19;;;;;;;32.70;21.85;;;;;;;10.19;100.00;100928.56;10383845;28;20037;-73
2023/03/29 19:26:20;;;;;;;34.83;23.23;;;;;;;9.85;100.00;100865.28;10377388;28;20033;-73
2023/03/29 19:31:21;;;;;;;37.17;22.88;;;;;;;10.10;100.00;100897.84;10380134;28;20041;-73
2023/03/29 19:36:21;;;;;;;31.67;22.05;;;;;;;10.05;100.00;100897.78;10363103;28;20060;-73
2023/03/29 19:41:22;;;;;;;35.50;23.45;;;;;;;10.11;100.00;100882.22;10368104;28;20120;-73
2023/03/29 19:46:22;;;;;;;34.83;23.73;;;;;;;10.02;100.00;100868.03;10381588;28;20152;-74
2023/03/29 19:51:25;;;;;;;35.92;24.58;;;;;;;10.05;100.00;100856.53;10414334;28;20118;-74
2023/03/29 19:56:26;;;;;;;39.33;24.40;;;;;;;10.09;100.00;100854.13;10398717;28;20033;-73
2023/03/29 20:01:27;;;;;;;32.55;23.77;;;;;;;10.02;100.00;100847.94;10399222;28;20033;-75
2023/03/29 20:06:27;;;;;;;34.80;24.95;;;;;;;10.09;100.00;100859.63;10380905;28;20037;-74
2023/03/29 20:11:28;;;;;;;38.92;25.08;;;;;;;10.11;100.00;100860.19;10382750;28;20045;-75
2023/03/29 20:16:33;;;;;;;37.03;26.27;;;;;;;10.11;100.00;100838.19;10398506;28;20029;-75
2023/03/29 20:21:36;;;;;;;36.05;23.75;;;;;;;10.13;100.00;100824.16;10376081;28;20080;-75
2023/03/29 20:26:36;;;;;;;34.15;23.73;;;;;;;10.11;100.00;100827.19;10382205;28;20033;-75
2023/03/29 20:31:36;;;;;;;37.78;26.40;;;;;;;10.12;100.00;100814.25;10398342;28;20033;-75
2023/03/29 20:36:39;;;;;;;35.92;24.95;;;;;;;10.06;100.00;100813.34;10414950;28;20053;-75
2023/03/29 20:41:39;;;;;;;38.70;26.30;;;;;;;10.02;100.00;100806.69;10366535;28;20084;-75
2023/03/29 20:46:44;;;;;;;33.30;23.63;;;;;;;9.97;100.00;100790.94;10351971;28;20219;-75
2023/03/29 20:51:45;;;;;;;39.92;27.17;;;;;;;9.95;100.00;100775.78;10397813;28;20378;-76
2023/03/29 20:56:46;;;;;;;39.33;26.50;;;;;;;9.90;100.00;100782.88;10397395;28;20038;-75
2023/03/29 21:01:49;;;;;;;38.33;26.52;;;;;;;9.83;100.00;100770.38;10396832;28;20077;-76
2023/03/29 21:06:49;;;;;;;45.45;29.20;;;;;;;9.82;100.00;100752.22;10382016;28;20053;-75
2023/03/29 21:11:51;;;;;;;44.20;29.73;;;;;;;9.75;100.00;100746.06;10364486;28;20108;-75
2023/03/29 21:16:51;;;;;;;49.03;31.45;;;;;;;9.65;100.00;100731.09;10396988;28;20463;-76
2023/03/29 21:21:53;;;;;;;46.40;31.38;;;;;;;9.66;100.00;100709.94;10354732;28;20076;-75
2023/03/29 21:26:54;;;;;;;52.25;32.72;;;;;;;9.65;100.00;100697.25;10408252;28;20090;-76
2023/03/29 21:31:54;;;;;;;55.00;35.97;;;;;;;9.63;100.00;100708.53;10365945;28;20034;-76
2023/03/29 21:36:55;;;;;;;57.90;35.05;;;;;;;9.55;100.00;100686.09;10339672;28;20056;-75
2023/03/29 21:41:55;;;;;;;53.40;35.53;;;;;;;9.43;100.00;100667.81;10363730;28;20591;-75
2023/03/29 21:46:56;;;;;;;54.17;34.10;;;;;;;9.27;100.00;100639.28;10378796;28;20509;-75
2023/03/29 21:51:57;;;;;;;58.22;37.03;;;;;;;9.37;100.00;100657.00;10378641;28;20045;-75
2023/03/29 21:56:58;;;;;;;56.97;37.47;;;;;;;9.34;100.00;100641.84;10379326;28;20050;-75
2023/03/29 22:01:58;;;;;;;64.53;39.35;;;;;;;9.29;100.00;100628.03;10349675;28;20046;-75
2023/03/29 22:06:59;;;;;;;64.00;40.38;;;;;;;9.32;100.00;100627.50;10361929;28;20045;-75
2023/03/29 22:12:00;;;;;;;62.83;38.78;;;;;;;9.30;100.00;100602.22;10368249;28;20037;-76
2023/03/29 22:17:01;;;;;;;59.92;38.85;;;;;;;9.32;100.00;100622.03;10368308;28;20042;-75
2023/03/29 22:22:05;;;;;;;60.05;37.72;;;;;;;9.31;100.00;100597.56;10377821;28;20049;-76
2023/03/29 22:27:06;;;;;;;63.67;38.60;;;;;;;9.29;100.00;100609.63;10368422;28;20534;-76
2023/03/29 22:32:06;;;;;;;65.75;39.80;;;;;;;9.30;100.00;100596.72;10369296;28;20030;-76
2023/03/29 22:37:07;;;;;;;62.85;38.90;;;;;;;9.13;100.00;100558.31;10394998;28;20041;-76
2023/03/29 22:42:07;;;;;;;62.75;38.10;;;;;;;9.26;100.00;100590.06;10348582;28;20026;-76
2023/03/29 22:47:07;;;;;;;61.78;36.83;;;;;;;9.31;100.00;100587.41;10376927;28;20049;-76
2023/03/29 22:52:08;;;;;;;59.88;37.33;;;;;;;9.45;100.00;100599.69;10360962;28;20057;-75